Time;durP1;ratioP1;P1;durP2;ratioP2;P2;SDS_P1;SDS_P2;PMS_P1;PMS_P2;Temp;Humidity;BMP_temperature;BMP_pressure;BME280_temperature;BME280_humidity;BME280_pressure;Samples;Min_cycle;Max_cycle;Signal;HPM_P1;HPM_P2
2022/10/13 00:01:14;;;;;;;;;;;;;;;20.72;48.51;101656.56;5140081;27;19941;-36
2022/10/13 00:03:40;;;;;;;;;;;;;;;20.71;48.24;101650.22;5135412;27;20018;-36
2022/10/13 00:06:07;;;;;;;;;;;;;;;20.71;48.23;101641.91;5142098;27;20010;-36
2022/10/13 00:08:32;;;;;;;;;;;;;;;20.72;47.94;101649.09;5119768;27;20013;-36
2022/10/13 00:10:59;;;;;;;;;;;;;;;20.72;48.25;101639.97;5137569;27;20320;-36
2022/10/13 00:13:25;;;;;;;;;;;;;;;20.71;48.29;101641.91;5137248;27;20498;-37
2022/10/13 00:15:50;;;;;;;;;;;;;;;20.72;47.69;101640.78;5115416;27;19927;-36
2022/10/13 00:18:16;;;;;;;;;;;;;;;20.72;48.29;101628.91;5120260;27;20014;-36
2022/10/13 00:20:46;;;;;;;;;;;;;;;20.72;48.19;101638.03;5133653;27;19930;-36
2022/10/13 00:23:12;;;;;;;;;;;;;;;20.72;48.14;101626.97;5118479;27;20034;-36
2022/10/13 00:25:40;;;;;;;;;;;;;;;20.72;48.14;101631.66;5134617;27;20006;-36
2022/10/13 00:28:05;;;;;;;;;;;;;;;20.72;48.31;101628.91;5138254;27;19962;-36
2022/10/13 00:30:34;;;;;;;;;;;;;;;20.71;48.16;101624.47;5138830;27;19938;-36
2022/10/13 00:33:00;;;;;;;;;;;;;;;20.72;48.14;101623.38;5137852;27;20517;-36
2022/10/13 00:35:25;;;;;;;;;;;;;;;20.72;48.07;101626.13;5134150;27;19927;-36
2022/10/13 00:37:52;;;;;;;;;;;;;;;20.72;48.04;101629.72;5137643;27;20287;-36
2022/10/13 00:40:17;;;;;;;;;;;;;;;20.71;48.07;101627.25;5135333;27;20018;-36
2022/10/13 00:42:43;;;;;;;;;;;;;;;20.73;48.06;101623.09;5138296;27;19934;-36
2022/10/13 00:45:14;;;;;;;;;;;;;;;20.72;48.09;101624.19;5134660;27;19931;-36
2022/10/13 00:47:43;;;;;;;;;;;;;;;20.72;48.21;101626.13;5114919;27;19967;-36
2022/10/13 00:50:10;;;;;;;;;;;;;;;20.71;47.81;101630.84;5118383;27;20013;-36
2022/10/13 00:52:36;;;;;;;;;;;;;;;20.71;48.18;101622.53;5117310;27;19959;-36
2022/10/13 00:55:02;;;;;;;;;;;;;;;20.71;48.25;101618.94;5118196;27;19980;-36
2022/10/13 00:57:28;;;;;;;;;;;;;;;20.71;48.17;101614.22;5121098;27;19973;-36
2022/10/13 00:59:53;;;;;;;;;;;;;;;20.71;48.29;101614.22;5138415;27;19923;-36
2022/10/13 01:02:19;;;;;;;;;;;;;;;20.71;48.13;101617.00;5133957;27;20012;-36
2022/10/13 01:04:45;;;;;;;;;;;;;;;20.72;48.24;101615.06;5132768;27;20053;-36
2022/10/13 01:07:12;;;;;;;;;;;;;;;20.71;48.31;101613.41;5136394;27;20375;-37
2022/10/13 01:09:37;;;;;;;;;;;;;;;20.71;48.30;101602.34;5116939;27;20348;-36
2022/10/13 01:12:08;;;;;;;;;;;;;;;20.71;48.34;101596.81;5134484;27;20295;-37
2022/10/13 01:14:35;;;;;;;;;;;;;;;20.71;48.23;101600.41;5135866;27;20000;-37
2022/10/13 01:17:05;;;;;;;;;;;;;;;20.71;48.09;101602.34;5135588;27;20426;-36
2022/10/13 01:19:44;;;;;;;;;;;;;;;20.71;48.20;101596.81;5134620;27;19962;-36
2022/10/13 01:22:20;;;;;;;;;;;;;;;20.71;48.05;101588.50;5115807;27;20339;-36
2022/10/13 01:24:50;;;;;;;;;;;;;;;20.72;48.23;101585.44;5133920;27;19927;-37
2022/10/13 01:30:07;;;;;;;;;;;;;;;20.70;48.31;101593.19;5167904;27;19934;-36
2022/10/13 01:32:36;;;;;;;;;;;;;;;20.70;48.01;101584.91;5132843;27;20275;-36
2022/10/13 01:35:10;;;;;;;;;;;;;;;20.71;48.31;101589.31;5151707;27;20074;-36
2022/10/13 01:37:53;;;;;;;;;;;;;;;20.71;48.31;101586.56;5138446;27;20022;-36
2022/10/13 01:40:23;;;;;;;;;;;;;;;20.70;48.30;101584.06;5158452;27;19923;-36
2022/10/13 01:45:43;;;;;;;;;;;;;;;20.71;48.13;101585.72;5176596;27;20030;-36
2022/10/13 01:48:08;;;;;;;;;;;;;;;20.70;48.08;101579.38;5132006;27;20018;-36
2022/10/13 01:50:34;;;;;;;;;;;;;;;20.71;48.28;101580.19;5155807;27;19931;-36
2022/10/13 01:53:00;;;;;;;;;;;;;;;20.71;48.09;101569.13;5155081;27;20367;-36
2022/10/13 01:55:27;;;;;;;;;;;;;;;20.70;48.26;101573.81;5125186;27;20018;-36
2022/10/13 01:57:53;;;;;;;;;;;;;;;20.71;48.16;101577.41;5138498;27;19928;-36
2022/10/13 02:00:19;;;;;;;;;;;;;;;20.70;48.20;101573.81;5135816;27;19930;-36
2022/10/13 02:03:04;;;;;;;;;;;;;;;20.70;48.13;101568.28;5118058;27;20375;-36
2022/10/13 02:05:49;;;;;;;;;;;;;;;20.71;48.15;101569.13;5122534;27;20334;-36
2022/10/13 02:08:17;;;;;;;;;;;;;;;20.70;48.21;101571.06;5116468;27;20034;-36
2022/10/13 02:10:45;;;;;;;;;;;;;;;20.70;48.36;101559.16;5119146;27;19970;-36
2022/10/13 02:13:11;;;;;;;;;;;;;;;20.71;47.96;101560.81;5117926;27;19973;-36
2022/10/13 02:15:38;;;;;;;;;;;;;;;20.70;48.09;101562.75;5135478;27;19967;-36
2022/10/13 02:18:04;;;;;;;;;;;;;;;20.70;48.15;101564.69;5115922;27;20456;-36
2022/10/13 02:20:29;;;;;;;;;;;;;;;20.69;48.07;101561.09;5135372;27;19939;-36
2022/10/13 02:22:56;;;;;;;;;;;;;;;20.70;48.22;101560.00;5119625;27;20023;-36
2022/10/13 02:25:22;;;;;;;;;;;;;;;20.69;48.14;101561.09;5119892;27;20014;-36
2022/10/13 02:27:47;;;;;;;;;;;;;;;20.69;48.13;101552.81;5133004;27;20368;-37
2022/10/13 02:30:21;;;;;;;;;;;;;;;20.71;48.33;101555.28;5136084;27;19923;-37
2022/10/13 02:32:47;;;;;;;;;;;;;;;20.70;48.17;101548.09;5120229;27;20350;-36
2022/10/13 02:35:12;;;;;;;;;;;;;;;20.70;48.19;101548.09;5131176;27;19930;-36
2022/10/13 02:37:38;;;;;;;;;;;;;;;20.70;48.14;101551.69;5130804;27;19924;-36
2022/10/13 02:40:04;;;;;;;;;;;;;;;20.69;48.18;101557.50;5137793;27;19927;-36
2022/10/13 02:42:30;;;;;;;;;;;;;;;20.70;48.20;101554.44;5131334;27;19970;-36
2022/10/13 02:44:55;;;;;;;;;;;;;;;20.70;48.25;101556.41;5136239;27;19930;-38
2022/10/13 02:47:21;;;;;;;;;;;;;;;20.70;48.18;101557.22;5130642;27;19923;-38
2022/10/13 02:49:47;;;;;;;;;;;;;;;20.70;48.15;101553.63;5135322;27;20329;-37
2022/10/13 02:52:12;;;;;;;;;;;;;;;20.69;48.23;101552.81;5132785;27;19931;-37
2022/10/13 02:54:38;;;;;;;;;;;;;;;20.69;48.31;101549.22;5134742;27;19930;-38
2022/10/13 02:57:03;;;;;;;;;;;;;;;20.69;48.31;101550.03;5121276;27;20060;-37
2022/10/13 02:59:29;;;;;;;;;;;;;;;20.69;48.17;101552.81;5119690;28;19980;-37
2022/10/13 03:01:55;;;;;;;;;;;;;;;20.69;48.22;101550.03;5125244;27;19924;-37
2022/10/13 03:04:21;;;;;;;;;;;;;;;20.70;48.19;101542.56;5127518;27;19978;-37
2022/10/13 03:06:46;;;;;;;;;;;;;;;20.70;48.18;101545.31;5119368;27;19923;-37
2022/10/13 03:09:12;;;;;;;;;;;;;;;20.70;48.08;101539.78;5120529;27;19968;-37
2022/10/13 03:11:37;;;;;;;;;;;;;;;20.71;48.17;101541.44;5122247;27;19924;-38
2022/10/13 03:14:03;;;;;;;;;;;;;;;20.70;48.25;101537.03;5123888;27;19946;-38
2022/10/13 03:16:28;;;;;;;;;;;;;;;20.69;48.24;101536.19;5120271;27;19931;-37
2022/10/13 03:18:54;;;;;;;;;;;;;;;20.70;48.35;101534.25;5122134;27;19947;-38
2022/10/13 03:21:20;;;;;;;;;;;;;;;20.69;48.17;101527.88;5119581;27;19938;-38
2022/10/13 03:23:45;;;;;;;;;;;;;;;20.69;48.14;101527.88;5116354;27;19932;-37
2022/10/13 03:26:11;;;;;;;;;;;;;;;20.70;48.14;101525.94;5119098;28;19923;-37
2022/10/13 03:28:36;;;;;;;;;;;;;;;20.69;48.13;101519.59;5121263;28;19923;-37
2022/10/13 03:31:04;;;;;;;;;;;;;;;20.69;48.21;101527.06;5118097;28;19931;-37
2022/10/13 03:33:29;;;;;;;;;;;;;;;20.69;48.23;101516.81;5097388;28;20060;-37
2022/10/13 03:36:00;;;;;;;;;;;;;;;20.69;48.19;101519.59;5124952;27;19934;-37
2022/10/13 03:38:25;;;;;;;;;;;;;;;20.70;48.31;101512.09;5122776;27;20201;-37
2022/10/13 03:40:51;;;;;;;;;;;;;;;20.70;48.12;101506.56;5124603;28;19931;-37
2022/10/13 03:43:16;;;;;;;;;;;;;;;20.69;48.16;101508.50;5116703;27;19971;-37
2022/10/13 03:45:42;;;;;;;;;;;;;;;20.69;48.24;101502.16;5120287;27;19931;-37
2022/10/13 03:48:07;;;;;;;;;;;;;;;20.69;48.30;101514.06;5122279;27;19935;-37
2022/10/13 03:50:33;;;;;;;;;;;;;;;20.69;48.14;101514.06;5117802;27;19927;-37
2022/10/13 03:52:58;;;;;;;;;;;;;;;20.69;48.22;101508.50;5126785;27;19931;-38
2022/10/13 03:55:24;;;;;;;;;;;;;;;20.69;48.24;101507.69;5117062;27;20299;-37
2022/10/13 03:57:50;;;;;;;;;;;;;;;20.69;48.27;101502.97;5125889;27;19938;-37
2022/10/13 04:00:15;;;;;;;;;;;;;;;20.69;48.29;101504.91;5123548;27;19976;-38
2022/10/13 04:02:41;;;;;;;;;;;;;;;20.69;48.32;101497.44;5117764;27;20384;-37
2022/10/13 04:05:07;;;;;;;;;;;;;;;20.69;48.29;101496.63;5125832;27;19935;-38
2022/10/13 04:07:32;;;;;;;;;;;;;;;20.69;48.40;101504.91;5121001;27;19930;-37
2022/10/13 04:09:58;;;;;;;;;;;;;;;20.68;48.33;101501.31;5120116;27;19930;-37
2022/10/13 04:12:23;;;;;;;;;;;;;;;20.69;48.36;101500.22;5120775;28;20002;-37
2022/10/13 04:14:49;;;;;;;;;;;;;;;20.69;48.22;101502.16;5119226;28;20067;-37
2022/10/13 04:17:15;;;;;;;;;;;;;;;20.69;48.10;101508.50;5118451;27;20290;-37
2022/10/13 04:19:40;;;;;;;;;;;;;;;20.69;48.27;101507.69;5123049;27;19924;-37
2022/10/13 04:22:06;;;;;;;;;;;;;;;20.68;48.31;101506.88;5124456;27;19951;-37
2022/10/13 04:24:31;;;;;;;;;;;;;;;20.69;48.13;101497.44;5118149;28;19931;-37
2022/10/13 04:26:57;;;;;;;;;;;;;;;20.69;48.34;101483.59;5117274;28;19924;-37
2022/10/13 04:29:22;;;;;;;;;;;;;;;20.69;48.21;101483.59;5121612;28;19943;-37
2022/10/13 04:31:49;;;;;;;;;;;;;;;20.68;48.19;101481.94;5119017;27;20318;-37
2022/10/13 04:34:14;;;;;;;;;;;;;;;20.69;48.01;101488.31;5120856;27;20027;-37
2022/10/13 04:36:40;;;;;;;;;;;;;;;20.69;48.26;101493.84;5115103;27;19932;-37
2022/10/13 04:39:05;;;;;;;;;;;;;;;20.69;48.30;101489.13;5115973;27;20386;-38
2022/10/13 04:41:31;;;;;;;;;;;;;;;20.70;48.39;101487.19;5118097;28;19954;-37
2022/10/13 04:43:57;;;;;;;;;;;;;;;20.69;48.14;101480.84;5118146;28;19948;-37
2022/10/13 04:46:24;;;;;;;;;;;;;;;20.69;48.16;101474.47;5121555;27;20450;-38
2022/10/13 04:48:49;;;;;;;;;;;;;;;20.68;48.32;101462.59;5106502;28;19981;-38
2022/10/13 04:51:16;;;;;;;;;;;;;;;20.69;48.14;101477.25;5117128;27;20318;-37
2022/10/13 04:53:42;;;;;;;;;;;;;;;20.69;48.25;101485.56;5122151;27;20359;-38
2022/10/13 04:56:09;;;;;;;;;;;;;;;20.68;48.14;101478.31;5103074;27;19930;-37
2022/10/13 04:58:35;;;;;;;;;;;;;;;20.69;48.34;101477.25;5123114;27;20014;-38
2022/10/13 05:01:01;;;;;;;;;;;;;;;20.69;48.16;101471.72;5100211;28;19967;-37
2022/10/13 05:03:27;;;;;;;;;;;;;;;20.68;48.25;101470.88;5098199;28;19969;-38
2022/10/13 05:05:52;;;;;;;;;;;;;;;20.68;48.20;101470.88;5100399;28;19927;-37
2022/10/13 05:08:18;;;;;;;;;;;;;;;20.69;48.27;101477.25;5097707;27;19932;-37
2022/10/13 05:10:54;;;;;;;;;;;;;;;20.69;48.19;101468.94;5117652;28;20059;-37
2022/10/13 05:13:19;;;;;;;;;;;;;;;20.68;48.23;101473.66;5103840;28;19974;-38
2022/10/13 05:15:45;;;;;;;;;;;;;;;20.70;48.13;101476.13;5117753;27;19939;-37
2022/10/13 05:18:11;;;;;;;;;;;;;;;20.68;48.15;101470.88;5120924;27;19924;-37
2022/10/13 05:20:36;;;;;;;;;;;;;;;20.68;48.33;101470.88;5119526;28;20396;-37
2022/10/13 05:23:02;;;;;;;;;;;;;;;20.69;48.22;101474.47;5112720;27;19923;-37
2022/10/13 05:25:27;;;;;;;;;;;;;;;20.69;48.16;101455.09;5121221;28;19923;-37
2022/10/13 05:27:58;;;;;;;;;;;;;;;20.69;48.38;101469.78;5117750;28;19970;-37
2022/10/13 05:30:24;;;;;;;;;;;;;;;20.69;48.35;101460.63;5121365;28;19927;-37
2022/10/13 05:32:50;;;;;;;;;;;;;;;20.68;48.31;101459.81;5118416;28;20368;-37
2022/10/13 05:35:19;;;;;;;;;;;;;;;20.69;48.21;101455.09;5118260;27;20352;-37
2022/10/13 05:37:44;;;;;;;;;;;;;;;20.68;48.27;101457.03;5119974;27;20403;-37
2022/10/13 05:40:10;;;;;;;;;;;;;;;20.69;48.24;101455.09;5116716;27;19928;-37
2022/10/13 05:42:35;;;;;;;;;;;;;;;20.69;48.34;101455.09;5119263;28;20231;-37
2022/10/13 05:45:01;;;;;;;;;;;;;;;20.69;48.19;101457.88;5120347;27;19924;-38
2022/10/13 05:47:27;;;;;;;;;;;;;;;20.68;48.39;101451.50;5101700;28;20364;-37
2022/10/13 05:49:53;;;;;;;;;;;;;;;20.67;48.29;101458.13;5119202;27;19923;-37
2022/10/13 05:52:19;;;;;;;;;;;;;;;20.67;48.34;101458.13;5115354;27;20019;-38
2022/10/13 05:54:46;;;;;;;;;;;;;;;20.67;48.14;101452.59;5120341;28;19927;-37
2022/10/13 05:57:13;;;;;;;;;;;;;;;20.68;48.24;101445.97;5097971;28;20031;-37
2022/10/13 05:59:40;;;;;;;;;;;;;;;20.67;48.24;101449.81;5118359;27;20006;-38
2022/10/13 06:02:06;;;;;;;;;;;;;;;20.69;48.22;101442.09;5117592;27;20014;-38
2022/10/13 06:04:33;;;;;;;;;;;;;;;20.68;48.33;101434.91;5120896;27;20054;-37
2022/10/13 06:06:59;;;;;;;;;;;;;;;20.68;48.16;101437.66;5121374;27;20428;-38
2022/10/13 06:09:25;;;;;;;;;;;;;;;20.68;48.17;101436.81;5119839;27;19935;-37
2022/10/13 06:11:51;;;;;;;;;;;;;;;20.68;48.25;101420.22;5114774;27;20058;-37
2022/10/13 06:14:16;;;;;;;;;;;;;;;20.67;48.34;101427.69;5119577;27;19924;-37
2022/10/13 06:16:42;;;;;;;;;;;;;;;20.68;48.26;101423.84;5113894;28;20391;-37
2022/10/13 06:19:07;;;;;;;;;;;;;;;20.68;48.23;101426.59;5119112;27;20146;-38
2022/10/13 06:21:33;;;;;;;;;;;;;;;20.68;48.32;101429.38;5100263;28;19930;-38
2022/10/13 06:24:00;;;;;;;;;;;;;;;20.68;48.18;101434.91;5112572;28;19977;-38
2022/10/13 06:26:25;;;;;;;;;;;;;;;20.68;48.33;101443.22;5124792;28;20446;-37
2022/10/13 06:28:51;;;;;;;;;;;;;;;20.67;48.18;101430.44;5122034;28;19935;-37
2022/10/13 06:31:23;;;;;;;;;;;;;;;20.67;48.27;101436.00;5119521;28;20353;-37
2022/10/13 06:33:49;;;;;;;;;;;;;;;20.69;48.19;101432.97;5120502;27;20346;-37
2022/10/13 06:36:14;;;;;;;;;;;;;;;20.68;48.15;101428.50;5122852;27;19932;-37
2022/10/13 06:38:40;;;;;;;;;;;;;;;20.68;48.34;101431.28;5123851;27;19931;-37
2022/10/13 06:41:06;;;;;;;;;;;;;;;20.68;48.32;101425.75;5124581;27;20321;-37
2022/10/13 06:43:31;;;;;;;;;;;;;;;20.68;48.20;101420.22;5122051;27;19974;-38
2022/10/13 06:46:04;;;;;;;;;;;;;;;20.68;48.20;101418.31;5115706;27;20410;-37
2022/10/13 06:48:30;;;;;;;;;;;;;;;20.67;48.08;101427.69;5098816;28;19934;-37
2022/10/13 06:50:59;;;;;;;;;;;;;;;20.68;48.27;101425.75;5107715;28;19927;-37
2022/10/13 06:53:25;;;;;;;;;;;;;;;20.67;48.43;101427.69;5103480;28;20435;-37
2022/10/13 06:55:54;;;;;;;;;;;;;;;20.69;48.34;101427.44;5123263;27;19943;-38
2022/10/13 06:58:19;;;;;;;;;;;;;;;20.68;48.39;101429.38;5119404;27;19997;-37
2022/10/13 07:00:45;;;;;;;;;;;;;;;20.67;48.17;101424.91;5124551;27;19924;-37
2022/10/13 07:03:11;;;;;;;;;;;;;;;20.67;48.32;101429.63;5124110;27;19939;-37
2022/10/13 07:05:36;;;;;;;;;;;;;;;20.67;48.20;101419.38;5120364;27;19927;-38
2022/10/13 07:08:02;;;;;;;;;;;;;;;20.68;48.32;101434.03;5122531;27;20045;-37
2022/10/13 07:10:27;;;;;;;;;;;;;;;20.68;48.22;101429.38;5121164;27;20088;-37
2022/10/13 07:12:53;;;;;;;;;;;;;;;20.68;48.23;101428.50;5120289;27;19924;-37
2022/10/13 07:15:19;;;;;;;;;;;;;;;20.68;48.20;101423.84;5118000;27;19973;-37
2022/10/13 07:17:44;;;;;;;;;;;;;;;20.68;48.37;101420.22;5123688;28;19932;-37
2022/10/13 07:20:10;;;;;;;;;;;;;;;20.68;48.21;101428.50;5122125;27;19924;-37
2022/10/13 07:22:35;;;;;;;;;;;;;;;20.68;48.16;101428.50;5121317;28;19924;-37
2022/10/13 07:25:01;;;;;;;;;;;;;;;20.69;48.30;101430.19;5122504;28;20364;-37
2022/10/13 07:27:26;;;;;;;;;;;;;;;20.67;48.20;101405.53;5122197;28;19935;-37
2022/10/13 07:29:52;;;;;;;;;;;;;;;20.67;48.23;101400.00;5121859;28;19928;-38
2022/10/13 07:32:18;;;;;;;;;;;;;;;20.68;48.40;101421.06;5121558;27;19923;-37
2022/10/13 07:34:43;;;;;;;;;;;;;;;20.67;48.21;101418.56;5121827;27;19924;-37
2022/10/13 07:37:09;;;;;;;;;;;;;;;20.67;48.31;101413.84;5122837;27;19923;-37
2022/10/13 07:39:34;;;;;;;;;;;;;;;20.68;48.26;101414.69;5115111;27;20190;-37
2022/10/13 07:42:00;;;;;;;;;;;;;;;20.67;48.41;101419.38;5121862;28;19932;-37
2022/10/13 07:44:25;;;;;;;;;;;;;;;20.68;48.38;101422.97;5118332;27;20382;-38
2022/10/13 07:46:51;;;;;;;;;;;;;;;20.68;48.31;101428.50;5116782;27;19989;-37
2022/10/13 07:49:17;;;;;;;;;;;;;;;20.68;48.23;101429.38;5119403;27;19931;-38
2022/10/13 07:51:42;;;;;;;;;;;;;;;20.68;48.27;101426.59;5120639;27;19923;-37
2022/10/13 07:54:08;;;;;;;;;;;;;;;20.67;48.35;101438.75;5121545;27;19931;-38
2022/10/13 07:56:33;;;;;;;;;;;;;;;20.68;48.24;101439.59;5119342;27;20368;-37
2022/10/13 07:59:00;;;;;;;;;;;;;;;20.68;48.46;101445.13;5117557;27;19924;-37
2022/10/13 08:01:26;;;;;;;;;;;;;;;20.68;48.42;101440.44;5122270;28;20372;-37
2022/10/13 08:03:53;;;;;;;;;;;;;;;20.68;48.22;101437.66;5127579;27;19930;-38
2022/10/13 08:06:19;;;;;;;;;;;;;;;20.68;48.29;101442.34;5118655;27;19924;-37
2022/10/13 08:08:44;;;;;;;;;;;;;;;20.67;48.32;101441.53;5122441;27;20290;-37
2022/10/13 08:11:11;;;;;;;;;;;;;;;20.67;48.31;101438.75;5120593;27;19935;-37
2022/10/13 08:13:41;;;;;;;;;;;;;;;20.68;48.39;101437.66;5102822;28;19942;-38
2022/10/13 08:16:07;;;;;;;;;;;;;;;20.68;48.26;101436.81;5106727;28;20291;-38
2022/10/13 08:18:32;;;;;;;;;;;;;;;20.67;48.38;101441.53;5125097;27;19931;-38
2022/10/13 08:20:58;;;;;;;;;;;;;;;20.67;48.27;101435.16;5122382;27;19924;-38
2022/10/13 08:23:44;;;;;;;;;;;;;;;20.68;48.31;101440.44;5108715;28;20369;-38
2022/10/13 08:26:13;;;;;;;;;;;;;;;20.68;48.35;101442.34;5100149;28;19934;-37
2022/10/13 08:28:38;;;;;;;;;;;;;;;20.68;48.42;101442.34;5100744;28;19967;-37
2022/10/13 08:31:04;;;;;;;;;;;;;;;20.68;48.26;101439.59;5118528;28;19928;-37
2022/10/13 08:33:30;;;;;;;;;;;;;;;20.66;48.28;101428.81;5121756;28;19928;-37
2022/10/13 08:35:56;;;;;;;;;;;;;;;20.68;48.06;101428.50;5115794;27;19928;-37
2022/10/13 08:38:21;;;;;;;;;;;;;;;20.67;48.26;101422.16;5117315;27;19927;-37
2022/10/13 08:40:47;;;;;;;;;;;;;;;20.66;48.41;101414.97;5116436;27;20393;-38
2022/10/13 08:43:14;;;;;;;;;;;;;;;20.67;48.26;101422.16;5118835;27;19923;-37
2022/10/13 08:45:39;;;;;;;;;;;;;;;20.68;48.31;101414.69;5117670;27;20027;-37
2022/10/13 08:48:12;;;;;;;;;;;;;;;20.68;48.18;101414.69;5116445;27;19924;-37
2022/10/13 08:50:39;;;;;;;;;;;;;;;20.67;48.31;101413.84;5118702;27;19997;-37
2022/10/13 08:53:08;;;;;;;;;;;;;;;20.67;48.28;101416.63;5102858;28;20018;-37
2022/10/13 08:55:42;;;;;;;;;;;;;;;20.67;48.23;101416.63;5118035;27;19978;-37
2022/10/13 08:58:10;;;;;;;;;;;;;;;20.67;48.36;101421.31;5117131;27;20375;-37
2022/10/13 09:00:36;;;;;;;;;;;;;;;20.68;48.52;101420.22;5099853;28;20097;-37
2022/10/13 09:03:19;;;;;;;;;;;;;;;20.68;48.36;101417.44;5118052;27;19936;-37
2022/10/13 09:05:47;;;;;;;;;;;;;;;20.67;48.24;101413.03;5117188;27;20070;-37
2022/10/13 09:08:15;;;;;;;;;;;;;;;20.67;48.26;101416.63;5117224;27;19975;-37
2022/10/13 09:10:48;;;;;;;;;;;;;;;20.66;48.27;101420.50;5122116;27;20014;-37
2022/10/13 09:13:13;;;;;;;;;;;;;;;20.68;48.31;101420.22;5101369;28;20022;-37
2022/10/13 09:15:49;;;;;;;;;;;;;;;20.67;48.33;101415.78;5118790;27;19930;-37
2022/10/13 09:18:14;;;;;;;;;;;;;;;20.67;48.31;101427.69;5100122;27;19927;-37
2022/10/13 09:20:40;;;;;;;;;;;;;;;20.67;48.38;101419.38;5102425;28;20260;-37
2022/10/13 09:23:15;;;;;;;;;;;;;;;20.67;48.34;101418.56;5099929;28;19976;-37
2022/10/13 09:25:41;;;;;;;;;;;;;;;20.67;48.38;101410.25;5119247;28;20010;-37
2022/10/13 09:28:08;;;;;;;;;;;;;;;20.67;48.29;101404.72;5094795;28;20013;-37
2022/10/13 09:30:37;;;;;;;;;;;;;;;20.67;48.36;101411.06;5120119;28;20056;-38
2022/10/13 09:35:39;;;;;;;;;;;;;;;20.67;48.31;101408.31;5161435;27;19930;-37
2022/10/13 09:38:06;;;;;;;;;;;;;;;20.67;48.43;101404.72;5145547;27;20066;-37
2022/10/13 09:40:32;;;;;;;;;;;;;;;20.68;48.26;101406.38;5146005;27;21135;-37
2022/10/13 09:42:58;;;;;;;;;;;;;;;20.67;48.50;101400.00;5145775;27;19927;-38
2022/10/13 09:45:24;;;;;;;;;;;;;;;20.67;48.43;101391.72;5124326;27;20058;-38
2022/10/13 09:47:51;;;;;;;;;;;;;;;20.67;48.28;101400.00;5129324;27;19931;-38
2022/10/13 09:50:17;;;;;;;;;;;;;;;20.68;48.48;101395.31;5123392;27;20335;-37
2022/10/13 09:52:43;;;;;;;;;;;;;;;20.66;48.52;101384.53;5128309;27;19973;-37
2022/10/13 09:55:25;;;;;;;;;;;;;;;20.66;48.34;101381.75;5146311;27;20006;-38
2022/10/13 09:58:05;;;;;;;;;;;;;;;20.67;48.27;101383.41;5131274;27;20283;-37
2022/10/13 10:00:30;;;;;;;;;;;;;;;20.67;48.40;101374.28;5127516;27;20038;-38
2022/10/13 10:02:57;;;;;;;;;;;;;;;20.67;48.27;101368.75;5126407;27;19923;-38
2022/10/13 10:08:13;;;;;;;;;;;;;;;20.67;48.31;101379.81;5163389;27;19941;-37
2022/10/13 10:10:39;;;;;;;;;;;;;;;20.67;48.38;101365.97;5153651;27;19969;-37
2022/10/13 10:13:06;;;;;;;;;;;;;;;20.67;48.40;101368.75;5152372;27;20006;-38
2022/10/13 10:15:52;;;;;;;;;;;;;;;20.67;48.40;101372.34;5150972;27;19955;-38
2022/10/13 10:18:19;;;;;;;;;;;;;;;20.67;48.33;101363.22;5133642;27;20461;-37
2022/10/13 10:20:52;;;;;;;;;;;;;;;20.67;48.46;101364.03;5155291;27;20010;-37
2022/10/13 10:23:20;;;;;;;;;;;;;;;20.66;48.44;101359.63;5130320;27;19984;-37
2022/10/13 10:25:48;;;;;;;;;;;;;;;20.66;48.27;101361.56;5150094;27;19974;-38
2022/10/13 10:28:16;;;;;;;;;;;;;;;20.67;48.28;101352.13;5136860;27;20019;-37
2022/10/13 10:30:43;;;;;;;;;;;;;;;20.66;48.45;101351.31;5145508;27;19935;-37
2022/10/13 10:33:12;;;;;;;;;;;;;;;20.66;48.40;101354.06;5136041;27;20370;-37
2022/10/13 10:35:40;;;;;;;;;;;;;;;20.68;48.26;101342.72;5147338;27;19971;-38
2022/10/13 10:40:49;;;;;;;;;;;;;;;20.67;48.27;101346.59;5174670;27;19925;-35
2022/10/13 10:43:35;;;;;;;;;;;;;;;20.66;48.33;101340.25;5141348;27;20096;-35
2022/10/13 10:46:00;;;;;;;;;;;;;;;20.67;48.29;101341.06;5139026;27;19958;-35
2022/10/13 10:48:28;;;;;;;;;;;;;;;20.66;48.32;101343.00;5132603;27;19924;-35
2022/10/13 10:50:54;;;;;;;;;;;;;;;20.67;48.38;101344.66;5153666;27;20010;-35
2022/10/13 10:53:23;;;;;;;;;;;;;;;20.67;48.33;101332.75;5160752;27;19923;-35
2022/10/13 10:55:52;;;;;;;;;;;;;;;20.67;48.32;101336.34;5151321;27;20033;-35
2022/10/13 10:58:20;;;;;;;;;;;;;;;20.67;48.34;101330.81;5149631;27;19962;-35
2022/10/13 11:00:50;;;;;;;;;;;;;;;20.67;48.29;101335.53;5146342;27;19969;-35
2022/10/13 11:03:21;;;;;;;;;;;;;;;20.67;48.32;101332.75;5151071;27;19930;-34
2022/10/13 11:06:03;;;;;;;;;;;;;;;20.67;48.51;101330.81;5150511;27;19970;-35
2022/10/13 11:08:45;;;;;;;;;;;;;;;20.66;48.36;101320.03;5152814;27;19958;-35
2022/10/13 11:14:07;;;;;;;;;;;;;;;20.67;48.41;101318.94;5172767;27;19929;-35
2022/10/13 11:16:34;;;;;;;;;;;;;;;20.68;48.38;101317.81;5162725;27;19958;-35
2022/10/13 11:21:54;;;;;;;;;;;;;;;20.66;48.28;101329.16;5168767;27;19949;-35
2022/10/13 11:24:38;;;;;;;;;;;;;;;20.67;48.58;101330.00;5158065;27;19959;-35
2022/10/13 11:27:09;;;;;;;;;;;;;;;20.67;48.34;101333.59;5178069;27;20005;-35
2022/10/13 11:29:46;;;;;;;;;;;;;;;20.67;48.43;101328.06;5177432;27;19969;-37
2022/10/13 11:32:40;;;;;;;;;;;;;;;20.67;48.27;101327.22;5172637;27;20475;-37
2022/10/13 11:35:08;;;;;;;;;;;;;;;20.67;48.41;101332.75;5170853;27;19962;-37
2022/10/13 11:37:39;;;;;;;;;;;;;;;20.68;48.33;101320.56;5176217;27;20434;-38
2022/10/13 11:40:12;;;;;;;;;;;;;;;20.67;48.23;101324.47;5175074;27;20013;-38
2022/10/13 11:42:58;;;;;;;;;;;;;;;20.65;48.43;101319.22;5169986;27;20010;-37
2022/10/13 11:45:29;;;;;;;;;;;;;;;20.66;48.41;101320.88;5155402;27;19930;-38
2022/10/13 11:48:01;;;;;;;;;;;;;;;20.67;48.45;101319.75;5173388;27;19985;-37
2022/10/13 11:50:47;;;;;;;;;;;;;;;20.66;48.34;101318.09;5173825;27;20306;-37
2022/10/13 11:53:17;;;;;;;;;;;;;;;20.66;48.45;101309.81;5154108;27;20017;-37
2022/10/13 11:55:50;;;;;;;;;;;;;;;20.67;48.29;101316.97;5155319;27;19924;-37
2022/10/13 11:58:20;;;;;;;;;;;;;;;20.67;48.43;101316.16;5132444;27;19978;-38
2022/10/13 12:01:05;;;;;;;;;;;;;;;20.67;48.23;101313.38;5151557;27;20307;-37
2022/10/13 12:03:32;;;;;;;;;;;;;;;20.67;48.43;101316.97;5139678;27;19962;-38
2022/10/13 12:06:00;;;;;;;;;;;;;;;20.67;48.53;101313.38;5130093;27;19927;-38
2022/10/13 12:08:25;;;;;;;;;;;;;;;20.66;48.50;101304.25;5150653;27;19973;-37
2022/10/13 12:10:56;;;;;;;;;;;;;;;20.66;48.54;101304.25;5156415;27;20072;-38
2022/10/13 12:13:24;;;;;;;;;;;;;;;20.66;48.47;101301.50;5134587;27;20366;-37
2022/10/13 12:15:58;;;;;;;;;;;;;;;20.66;48.46;101298.72;5128065;27;19926;-38
2022/10/13 12:18:28;;;;;;;;;;;;;;;20.67;48.43;101299.56;5130477;27;19959;-37
2022/10/13 12:20:55;;;;;;;;;;;;;;;20.66;48.38;101303.44;5152558;27;19954;-38
2022/10/13 12:23:21;;;;;;;;;;;;;;;20.66;48.43;101304.25;5136046;27;20454;-37
2022/10/13 12:25:47;;;;;;;;;;;;;;;20.66;48.45;101301.50;5148344;27;20219;-37
2022/10/13 12:28:16;;;;;;;;;;;;;;;20.67;48.43;101294.03;5154986;27;20617;-37
2022/10/13 12:30:43;;;;;;;;;;;;;;;20.66;48.49;101293.19;5135126;27;19927;-37
2022/10/13 12:33:28;;;;;;;;;;;;;;;20.67;48.48;101288.47;5119294;27;20439;-37
2022/10/13 12:35:54;;;;;;;;;;;;;;;20.66;48.47;101281.31;5119218;27;20382;-37
2022/10/13 12:38:20;;;;;;;;;;;;;;;20.66;48.55;101279.34;5118549;27;19931;-38
2022/10/13 12:40:47;;;;;;;;;;;;;;;20.66;48.42;101273.81;5116429;27;19931;-38
2022/10/13 12:43:15;;;;;;;;;;;;;;;20.67;48.38;101269.13;5117622;27;19989;-37
2022/10/13 12:45:41;;;;;;;;;;;;;;;20.67;48.43;101266.34;5132828;27;19971;-38
2022/10/13 12:48:25;;;;;;;;;;;;;;;20.66;48.49;101259.16;5133441;27;19976;-38
2022/10/13 12:50:50;;;;;;;;;;;;;;;20.66;48.37;101265.53;5116091;28;19969;-37
2022/10/13 12:53:17;;;;;;;;;;;;;;;20.66;48.29;101265.53;5137845;27;19934;-37
2022/10/13 12:55:47;;;;;;;;;;;;;;;20.66;48.59;101254.44;5118762;27;20465;-37
2022/10/13 12:58:17;;;;;;;;;;;;;;;20.66;48.51;101254.44;5138161;27;20014;-37